createdAt,value
2023-05-03T00:00:39.569Z,95259.00
2023-05-03T00:01:39.604Z,95255.00
2023-05-03T00:02:39.758Z,95259.00
2023-05-03T00:03:39.724Z,95259.00
2023-05-03T00:04:39.757Z,95259.00
2023-05-03T00:05:39.906Z,95257.00
2023-05-03T00:06:39.879Z,95255.00
2023-05-03T00:07:39.913Z,95257.00
2023-05-03T00:08:39.986Z,95255.00
2023-05-03T00:09:40.033Z,95255.00
2023-05-03T00:10:40.112Z,95253.00
2023-05-03T00:11:40.146Z,95253.00
2023-05-03T00:12:40.193Z,95252.00
2023-05-03T00:13:40.277Z,95253.00
2023-05-03T00:14:40.307Z,95252.00
2023-05-03T00:15:40.368Z,95255.00
2023-05-03T00:16:40.462Z,95255.00
2023-05-03T00:17:40.536Z,95255.00
2023-05-03T00:18:40.543Z,95255.00
2023-05-03T00:19:40.616Z,95255.00
2023-05-03T00:20:40.661Z,95255.00
2023-05-03T00:21:40.719Z,95253.00
2023-05-03T00:22:40.783Z,95253.00
2023-05-03T00:23:40.812Z,95253.00
2023-05-03T00:24:40.885Z,95252.00
2023-05-03T00:25:40.908Z,95250.00
2023-05-03T00:26:40.959Z,95253.00
2023-05-03T00:27:41.014Z,95255.00
2023-05-03T00:28:41.065Z,95253.00
2023-05-03T00:29:41.083Z,95252.00
2023-05-03T00:30:41.133Z,95252.00
2023-05-03T00:31:41.202Z,95253.00
2023-05-03T00:32:41.288Z,95255.00
2023-05-03T00:33:41.264Z,95253.00
2023-05-03T00:34:41.337Z,95252.00
2023-05-03T00:35:41.396Z,95252.00
2023-05-03T00:36:41.434Z,95255.00
2023-05-03T00:37:41.503Z,95253.00
2023-05-03T00:38:41.572Z,95253.00
2023-05-03T00:39:41.597Z,95253.00
2023-05-03T00:40:41.687Z,95253.00
2023-05-03T00:41:41.748Z,95250.00
2023-05-03T00:42:41.787Z,95250.00
2023-05-03T00:43:41.863Z,95248.00
2023-05-03T00:44:41.936Z,95250.00
2023-05-03T00:45:42.009Z,95250.00
2023-05-03T00:46:42.099Z,95248.00
2023-05-03T00:47:42.101Z,95250.00
2023-05-03T00:48:42.138Z,95248.00
2023-05-03T00:49:42.164Z,95250.00
2023-05-03T00:50:42.219Z,95250.00
2023-05-03T00:51:42.262Z,95250.00
2023-05-03T00:52:42.316Z,95250.00
2023-05-03T00:53:42.399Z,95253.00
2023-05-03T00:54:42.449Z,95252.00
2023-05-03T00:55:42.480Z,95250.00
2023-05-03T00:56:51.102Z,95252.00
2023-05-03T00:57:43.546Z,95252.00
2023-05-03T00:58:42.524Z,95253.00
2023-05-03T00:59:42.530Z,95253.00
2023-05-03T01:00:42.515Z,95253.00
2023-05-03T01:01:42.531Z,95250.00
2023-05-03T01:02:42.587Z,95253.00
2023-05-03T01:03:42.571Z,95252.00
2023-05-03T01:04:43.400Z,95252.00
2023-05-03T01:05:42.491Z,95250.00
2023-05-03T01:06:42.528Z,95250.00
2023-05-03T01:07:42.596Z,95248.00
2023-05-03T01:08:42.613Z,95246.00
2023-05-03T01:09:42.662Z,95248.00
2023-05-03T01:10:42.685Z,95248.00
2023-05-03T01:11:42.759Z,95246.00
2023-05-03T01:12:42.825Z,95246.00
2023-05-03T01:13:42.934Z,95246.00
2023-05-03T01:14:42.925Z,95244.00
2023-05-03T01:15:43.026Z,95244.00
2023-05-03T01:16:43.085Z,95244.00
2023-05-03T01:17:43.114Z,95244.00
2023-05-03T01:18:43.160Z,95240.00
2023-05-03T01:19:43.238Z,95240.00
2023-05-03T01:20:43.292Z,95242.00
2023-05-03T01:21:43.350Z,95246.00
2023-05-03T01:22:43.398Z,95242.00
2023-05-03T01:23:43.467Z,95248.00
2023-05-03T01:24:43.513Z,95246.00
2023-05-03T01:25:43.573Z,95244.00
2023-05-03T01:26:43.609Z,95246.00
2023-05-03T01:27:43.741Z,95244.00
2023-05-03T01:28:43.729Z,95244.00
2023-05-03T01:29:43.797Z,95242.00
2023-05-03T01:30:43.862Z,95240.00
2023-05-03T01:31:43.939Z,95240.00
2023-05-03T01:32:43.986Z,95238.00
2023-05-03T01:33:43.995Z,95240.00
2023-05-03T01:34:44.060Z,95240.00
2023-05-03T01:35:44.151Z,95238.00
2023-05-03T01:36:44.182Z,95240.00
2023-05-03T01:37:44.214Z,95240.00
2023-05-03T01:38:44.279Z,95240.00
2023-05-03T01:39:44.326Z,95240.00
2023-05-03T01:40:44.385Z,95240.00
2023-05-03T01:41:44.439Z,95242.00
2023-05-03T01:42:44.480Z,95240.00
2023-05-03T01:43:44.524Z,95242.00
2023-05-03T01:44:44.585Z,95242.00
2023-05-03T01:45:44.676Z,95242.00
2023-05-03T01:46:44.714Z,95244.00
2023-05-03T01:47:44.830Z,95242.00
2023-05-03T01:48:44.841Z,95242.00
2023-05-03T01:49:44.893Z,95242.00
2023-05-03T01:50:44.955Z,95242.00
2023-05-03T01:51:44.991Z,95242.00
2023-05-03T01:52:45.072Z,95244.00
2023-05-03T01:53:45.125Z,95244.00
2023-05-03T01:54:45.143Z,95244.00
2023-05-03T01:55:45.232Z,95244.00
2023-05-03T01:56:45.302Z,95244.00
2023-05-03T01:57:45.339Z,95244.00
2023-05-03T01:58:45.424Z,95246.00
2023-05-03T01:59:45.492Z,95246.00
2023-05-03T02:00:45.542Z,95244.00
2023-05-03T02:01:45.585Z,95248.00
2023-05-03T02:02:45.724Z,95246.00
2023-05-03T02:03:45.720Z,95244.00
2023-05-03T02:04:45.817Z,95240.00
2023-05-03T02:05:45.858Z,95242.00
2023-05-03T02:06:45.924Z,95246.00
2023-05-03T02:07:45.936Z,95242.00
2023-05-03T02:08:46.038Z,95242.00
2023-05-03T02:09:46.067Z,95244.00
2023-05-03T02:10:46.101Z,95244.00
2023-05-03T02:11:46.189Z,95240.00
2023-05-03T02:12:46.221Z,95242.00
2023-05-03T02:13:46.272Z,95242.00
2023-05-03T02:14:46.334Z,95246.00
2023-05-03T02:15:46.411Z,95246.00
2023-05-03T02:16:46.506Z,95246.00
2023-05-03T02:17:46.549Z,95244.00
2023-05-03T02:18:46.583Z,95246.00
2023-05-03T02:19:46.597Z,95246.00
2023-05-03T02:20:46.646Z,95248.00
2023-05-03T02:21:46.701Z,95248.00
2023-05-03T02:22:46.731Z,95244.00
2023-05-03T02:23:46.813Z,95248.00
2023-05-03T02:24:46.860Z,95248.00
2023-05-03T02:25:46.952Z,95248.00
2023-05-03T02:26:46.987Z,95248.00
2023-05-03T02:27:47.054Z,95246.00
2023-05-03T02:28:47.130Z,95252.00
2023-05-03T02:29:47.186Z,95248.00
2023-05-03T02:30:47.250Z,95250.00
2023-05-03T02:31:47.288Z,95250.00
2023-05-03T02:32:47.378Z,95248.00
2023-05-03T02:33:47.402Z,95248.00
2023-05-03T02:34:47.459Z,95248.00
2023-05-03T02:35:47.503Z,95244.00
2023-05-03T02:36:47.560Z,95246.00
2023-05-03T02:37:47.647Z,95246.00
2023-05-03T02:38:47.689Z,95244.00
2023-05-03T02:39:47.741Z,95244.00
2023-05-03T02:40:47.779Z,95248.00
2023-05-03T02:41:47.871Z,95248.00
2023-05-03T02:42:47.895Z,95248.00
2023-05-03T02:43:47.957Z,95244.00
2023-05-03T02:44:48.012Z,95246.00
2023-05-03T02:45:48.103Z,95248.00
2023-05-03T02:46:48.227Z,95246.00
2023-05-03T02:47:48.183Z,95246.00
2023-05-03T02:48:48.207Z,95248.00
2023-05-03T02:49:48.277Z,95246.00
2023-05-03T02:50:48.326Z,95246.00
2023-05-03T02:51:48.390Z,95246.00
2023-05-03T02:52:48.454Z,95248.00
2023-05-03T02:53:48.498Z,95250.00
2023-05-03T02:54:48.555Z,95248.00
2023-05-03T02:55:48.602Z,95248.00
2023-05-03T02:56:48.680Z,95248.00
2023-05-03T02:57:48.736Z,95252.00
2023-05-03T02:58:48.780Z,95252.00
2023-05-03T02:59:48.839Z,95250.00
2023-05-03T03:00:48.897Z,95253.00
2023-05-03T03:01:48.968Z,95250.00
2023-05-03T03:02:49.026Z,95252.00
2023-05-03T03:03:49.126Z,95253.00
2023-05-03T03:04:49.133Z,95253.00
2023-05-03T03:05:49.149Z,95252.00
2023-05-03T03:06:49.237Z,95253.00
2023-05-03T03:07:49.233Z,95255.00
2023-05-03T03:08:49.303Z,95253.00
2023-05-03T03:09:49.373Z,95252.00
2023-05-03T03:10:49.414Z,95250.00
2023-05-03T03:11:49.481Z,95252.00
2023-05-03T03:12:49.542Z,95250.00
2023-05-03T03:13:49.591Z,95252.00
2023-05-03T03:14:49.654Z,95252.00
2023-05-03T03:15:49.727Z,95252.00
2023-05-03T03:16:49.786Z,95253.00
2023-05-03T03:17:49.838Z,95253.00
2023-05-03T03:18:49.866Z,95255.00
2023-05-03T03:19:49.927Z,95253.00
2023-05-03T03:20:50.005Z,95255.00
2023-05-03T03:21:50.090Z,95255.00
2023-05-03T03:22:50.143Z,95257.00
2023-05-03T03:23:50.250Z,95259.00
2023-05-03T03:24:50.239Z,95259.00
2023-05-03T03:25:50.296Z,95261.00
2023-05-03T03:26:50.322Z,95259.00
2023-05-03T03:27:50.368Z,95261.00
2023-05-03T03:28:50.397Z,95263.00
2023-05-03T03:29:50.434Z,95263.00
2023-05-03T03:30:50.460Z,95263.00
2023-05-03T03:31:50.623Z,95259.00
2023-05-03T03:32:50.592Z,95261.00
2023-05-03T03:33:50.578Z,95261.00
2023-05-03T03:34:50.625Z,95259.00
2023-05-03T03:35:50.641Z,95259.00
2023-05-03T03:36:50.715Z,95259.00
2023-05-03T03:37:50.710Z,95257.00
2023-05-03T03:38:50.753Z,95259.00
2023-05-03T03:39:50.825Z,95261.00
2023-05-03T03:40:50.841Z,95263.00
2023-05-03T03:41:50.879Z,95265.00
2023-05-03T03:42:50.944Z,95269.00
2023-05-03T03:43:50.955Z,95267.00
2023-05-03T03:44:51.000Z,95269.00
2023-05-03T03:45:51.039Z,95269.00
2023-05-03T03:46:51.128Z,95267.00
2023-05-03T03:47:52.216Z,95275.00
2023-05-03T03:48:51.163Z,95275.00
2023-05-03T03:49:51.215Z,95277.00
2023-05-03T03:50:51.287Z,95275.00
2023-05-03T03:51:51.322Z,95275.00
2023-05-03T03:52:51.390Z,95275.00
2023-05-03T03:53:51.439Z,95277.00
2023-05-03T03:54:51.477Z,95273.00
2023-05-03T03:55:51.538Z,95273.00
2023-05-03T03:56:51.601Z,95273.00
2023-05-03T03:57:51.637Z,95273.00
2023-05-03T03:58:51.699Z,95275.00
2023-05-03T03:59:51.754Z,95273.00
2023-05-03T04:00:51.797Z,95273.00
2023-05-03T04:01:51.859Z,95273.00
2023-05-03T04:02:52.004Z,95273.00
2023-05-03T04:03:52.047Z,95273.00
2023-05-03T04:04:52.004Z,95271.00
2023-05-03T04:05:52.064Z,95273.00
2023-05-03T04:06:52.183Z,95273.00
2023-05-03T04:07:52.172Z,95273.00
2023-05-03T04:08:52.184Z,95269.00
2023-05-03T04:09:52.256Z,95269.00
2023-05-03T04:10:52.317Z,95269.00
2023-05-03T04:11:52.375Z,95269.00
2023-05-03T04:12:52.428Z,95271.00
2023-05-03T04:13:52.497Z,95271.00
2023-05-03T04:14:52.559Z,95271.00
2023-05-03T04:15:52.601Z,95271.00
2023-05-03T04:16:52.777Z,95271.00
2023-05-03T04:17:52.750Z,95271.00
2023-05-03T04:18:52.741Z,95271.00
2023-05-03T04:19:52.799Z,95271.00
2023-05-03T04:20:52.855Z,95271.00
2023-05-03T04:21:52.920Z,95275.00
2023-05-03T04:22:53.013Z,95275.00
2023-05-03T04:23:53.054Z,95277.00
2023-05-03T04:24:53.118Z,95275.00
2023-05-03T04:25:53.165Z,95277.00
2023-05-03T04:26:53.213Z,95281.00
2023-05-03T04:27:53.263Z,95281.00
2023-05-03T04:28:53.305Z,95283.00
2023-05-03T04:29:53.342Z,95283.00
2023-05-03T04:30:53.437Z,95285.00
2023-05-03T04:31:53.450Z,95285.00
2023-05-03T04:32:53.511Z,95285.00
2023-05-03T04:33:53.544Z,95285.00
2023-05-03T04:34:54.059Z,95285.00
2023-05-03T04:35:53.664Z,95285.00
2023-05-03T04:36:53.733Z,95283.00
2023-05-03T04:37:53.802Z,95287.00
2023-05-03T04:38:53.862Z,95287.00
2023-05-03T04:39:53.918Z,95285.00
2023-05-03T04:40:53.971Z,95283.00
2023-05-03T04:41:54.046Z,95285.00
2023-05-03T04:42:54.081Z,95285.00
2023-05-03T04:43:54.143Z,95289.00
2023-05-03T04:44:54.219Z,95289.00
2023-05-03T04:45:54.287Z,95291.00
2023-05-03T04:46:54.436Z,95289.00
2023-05-03T04:47:54.371Z,95289.00
2023-05-03T04:48:54.370Z,95289.00
2023-05-03T04:49:54.417Z,95293.00
2023-05-03T04:50:54.467Z,95289.00
2023-05-03T04:51:56.238Z,95291.00
2023-05-03T04:52:54.554Z,95289.00
2023-05-03T04:53:54.587Z,95291.00
2023-05-03T04:54:54.609Z,95289.00
2023-05-03T04:55:54.630Z,95291.00
2023-05-03T04:56:54.682Z,95291.00
2023-05-03T04:57:54.698Z,95289.00
2023-05-03T04:58:54.754Z,95287.00
2023-05-03T04:59:54.788Z,95289.00
2023-05-03T05:00:54.835Z,95291.00
2023-05-03T05:01:54.948Z,95287.00
2023-05-03T05:02:54.967Z,95289.00
2023-05-03T05:03:55.027Z,95289.00
2023-05-03T05:04:54.970Z,95287.00
2023-05-03T05:05:55.013Z,95289.00
2023-05-03T05:06:55.177Z,95289.00
2023-05-03T05:07:55.071Z,95291.00
2023-05-03T05:08:55.083Z,95291.00
2023-05-03T05:09:55.121Z,95291.00
2023-05-03T05:10:55.152Z,95293.00
2023-05-03T05:11:57.028Z,95293.00
2023-05-03T05:12:55.174Z,95293.00
2023-05-03T05:13:55.181Z,95289.00
2023-05-03T05:14:55.200Z,95289.00
2023-05-03T05:15:55.221Z,95287.00
2023-05-03T05:16:55.272Z,95285.00
2023-05-03T05:17:55.416Z,95287.00
2023-05-03T05:18:55.255Z,95287.00
2023-05-03T05:19:55.253Z,95283.00
2023-05-03T05:20:55.247Z,95283.00
2023-05-03T05:21:55.279Z,95285.00
2023-05-03T05:22:55.276Z,95287.00
2023-05-03T05:23:55.258Z,95289.00
2023-05-03T05:24:55.271Z,95295.00
2023-05-03T05:25:55.328Z,95295.00
2023-05-03T05:26:55.424Z,95297.00
2023-05-03T05:27:55.553Z,95295.00
2023-05-03T05:28:55.507Z,95297.00
2023-05-03T05:29:55.572Z,95299.00
2023-05-03T05:30:55.556Z,95299.00
2023-05-03T05:31:56.132Z,95299.00
2023-05-03T05:32:55.594Z,95293.00
2023-05-03T05:33:55.544Z,95295.00
2023-05-03T05:34:55.631Z,95295.00
2023-05-03T05:35:55.584Z,95299.00
2023-05-03T05:36:55.556Z,95300.00
2023-05-03T05:37:56.060Z,95300.00
2023-05-03T05:38:55.567Z,95302.00
2023-05-03T05:39:55.587Z,95300.00
2023-05-03T05:40:55.573Z,95302.00
2023-05-03T05:41:56.051Z,95300.00
2023-05-03T05:42:55.634Z,95300.00
2023-05-03T05:43:55.683Z,95299.00
2023-05-03T05:44:55.661Z,95302.00
2023-05-03T05:45:55.675Z,95300.00
2023-05-03T05:46:56.064Z,95300.00
2023-05-03T05:47:55.750Z,95304.00
2023-05-03T05:48:55.759Z,95302.00
2023-05-03T05:49:55.783Z,95302.00
2023-05-03T05:50:55.802Z,95304.00
2023-05-03T05:51:55.801Z,95304.00
2023-05-03T05:52:55.832Z,95304.00
2023-05-03T05:53:55.814Z,95302.00
2023-05-03T05:54:55.839Z,95302.00
2023-05-03T05:55:55.891Z,95302.00
2023-05-03T05:56:55.889Z,95306.00
2023-05-03T05:57:55.895Z,95304.00
2023-05-03T05:58:55.871Z,95304.00
2023-05-03T05:59:55.871Z,95304.00
2023-05-03T06:00:55.892Z,95306.00
2023-05-03T06:01:55.966Z,95306.00
2023-05-03T06:02:56.001Z,95304.00
2023-05-03T06:03:55.978Z,95304.00
2023-05-03T06:04:56.219Z,95306.00
2023-05-03T06:05:56.120Z,95306.00
2023-05-03T06:06:56.069Z,95308.00
2023-05-03T06:07:56.103Z,95306.00
2023-05-03T06:08:56.159Z,95308.00
2023-05-03T06:09:56.062Z,95308.00
2023-05-03T06:10:56.057Z,95306.00
2023-05-03T06:11:56.073Z,95306.00
2023-05-03T06:12:56.102Z,95308.00
2023-05-03T06:13:56.126Z,95306.00
2023-05-03T06:15:57.181Z,95302.00
2023-05-03T06:16:56.098Z,95304.00
2023-05-03T06:17:56.083Z,95306.00
2023-05-03T06:18:56.058Z,95302.00
2023-05-03T06:19:56.039Z,95300.00
2023-05-03T06:20:56.022Z,95299.00
2023-05-03T06:21:56.078Z,95299.00
2023-05-03T06:22:56.046Z,95297.00
2023-05-03T06:23:56.004Z,95297.00
2023-05-03T06:24:56.012Z,95297.00
2023-05-03T06:25:55.998Z,95297.00
2023-05-03T06:26:56.093Z,95295.00
2023-05-03T06:27:55.995Z,95295.00
2023-05-03T06:28:56.006Z,95295.00
2023-05-03T06:29:55.960Z,95293.00
2023-05-03T06:30:56.025Z,95295.00
2023-05-03T06:31:55.980Z,95297.00
2023-05-03T06:32:56.067Z,95295.00
2023-05-03T06:33:56.069Z,95295.00
2023-05-03T06:34:56.035Z,95299.00
2023-05-03T06:35:56.098Z,95299.00
2023-05-03T06:36:56.585Z,95297.00
2023-05-03T06:37:56.161Z,95299.00
2023-05-03T06:38:56.255Z,95300.00
2023-05-03T06:39:56.320Z,95299.00
2023-05-03T06:40:56.406Z,95304.00
2023-05-03T06:41:56.633Z,95299.00
2023-05-03T06:42:56.374Z,95302.00
2023-05-03T06:43:56.609Z,95302.00
2023-05-03T06:44:56.506Z,95300.00
2023-05-03T06:45:56.766Z,95299.00
2023-05-03T06:46:57.111Z,95300.00
2023-05-03T06:47:56.791Z,95299.00
2023-05-03T06:48:57.145Z,95299.00
2023-05-03T06:49:56.726Z,95299.00
2023-05-03T06:50:56.765Z,95299.00
2023-05-03T06:51:56.804Z,95299.00
2023-05-03T06:52:56.840Z,95297.00
2023-05-03T06:53:56.931Z,95297.00
2023-05-03T06:54:56.912Z,95297.00
2023-05-03T06:55:56.932Z,95295.00
2023-05-03T06:56:56.977Z,95299.00
2023-05-03T06:57:57.015Z,95297.00
2023-05-03T06:58:57.068Z,95297.00
2023-05-03T06:59:57.090Z,95297.00
2023-05-03T07:00:57.204Z,95295.00
2023-05-03T07:01:57.191Z,95295.00
2023-05-03T07:02:57.334Z,95297.00
2023-05-03T07:03:57.277Z,95295.00
2023-05-03T07:04:57.263Z,95297.00
2023-05-03T07:05:57.331Z,95295.00
2023-05-03T07:06:57.384Z,95293.00
2023-05-03T07:07:57.369Z,95295.00
2023-05-03T07:08:57.588Z,95293.00
2023-05-03T07:09:57.436Z,95293.00
2023-05-03T07:10:57.424Z,95293.00
2023-05-03T07:11:57.430Z,95291.00
2023-05-03T07:12:57.480Z,95293.00
2023-05-03T07:13:57.508Z,95291.00
2023-05-03T07:14:57.535Z,95291.00
2023-05-03T07:15:57.630Z,95289.00
2023-05-03T07:16:57.650Z,95291.00
2023-05-03T07:17:57.606Z,95291.00
2023-05-03T07:18:58.085Z,95289.00
2023-05-03T07:19:57.605Z,95287.00
2023-05-03T07:20:57.627Z,95283.00
2023-05-03T07:21:57.647Z,95285.00
2023-05-03T07:22:57.655Z,95281.00
2023-05-03T07:23:57.637Z,95287.00
2023-05-03T07:24:57.691Z,95287.00
2023-05-03T07:25:57.680Z,95287.00
2023-05-03T07:26:57.689Z,95283.00
2023-05-03T07:27:57.934Z,95287.00
2023-05-03T07:28:58.102Z,95283.00
2023-05-03T07:29:58.611Z,95281.00
2023-05-03T07:30:57.743Z,95277.00
2023-05-03T07:31:57.762Z,95279.00
2023-05-03T07:32:57.866Z,95277.00
2023-05-03T07:33:57.879Z,95273.00
2023-05-03T07:34:57.810Z,95275.00
2023-05-03T07:35:57.800Z,95273.00
2023-05-03T07:36:57.860Z,95269.00
2023-05-03T07:37:57.842Z,95269.00
2023-05-03T07:38:58.729Z,95271.00
2023-05-03T07:39:57.887Z,95267.00
2023-05-03T07:40:57.875Z,95267.00
2023-05-03T07:41:57.895Z,95269.00
2023-05-03T07:42:57.898Z,95269.00
2023-05-03T07:43:58.648Z,95269.00
2023-05-03T07:44:57.948Z,95271.00
2023-05-03T07:45:58.022Z,95269.00
2023-05-03T07:46:57.978Z,95269.00
2023-05-03T07:47:58.147Z,95267.00
2023-05-03T07:48:58.134Z,95265.00
2023-05-03T07:49:58.026Z,95265.00
2023-05-03T07:50:58.063Z,95265.00
2023-05-03T07:51:58.035Z,95263.00
2023-05-03T07:52:58.068Z,95261.00
2023-05-03T07:53:58.107Z,95261.00
2023-05-03T07:54:58.089Z,95261.00
2023-05-03T07:55:58.084Z,95261.00
2023-05-03T07:56:58.120Z,95261.00
2023-05-03T07:57:58.134Z,95263.00
2023-05-03T07:59:08.171Z,95257.00
2023-05-03T07:59:59.124Z,95259.00
2023-05-03T08:00:58.122Z,95255.00
2023-05-03T08:02:00.055Z,95261.00
2023-05-03T08:02:58.218Z,95261.00
2023-05-03T08:03:58.281Z,95257.00
2023-05-03T08:04:58.241Z,95253.00
2023-05-03T08:05:58.096Z,95253.00
2023-05-03T08:06:58.093Z,95252.00
2023-05-03T08:07:58.084Z,95252.00
2023-05-03T08:08:58.070Z,95253.00
2023-05-03T08:09:58.056Z,95250.00
2023-05-03T08:10:58.056Z,95248.00
2023-05-03T08:11:58.051Z,95250.00
2023-05-03T08:12:58.047Z,95246.00
2023-05-03T08:13:58.045Z,95250.00
2023-05-03T08:14:58.031Z,95246.00
2023-05-03T08:15:58.043Z,95246.00
2023-05-03T08:16:58.019Z,95246.00
2023-05-03T08:17:58.165Z,95244.00
2023-05-03T08:18:58.011Z,95246.00
2023-05-03T08:19:58.062Z,95244.00
2023-05-03T08:20:57.974Z,95244.00
2023-05-03T08:21:57.988Z,95242.00
2023-05-03T08:22:58.087Z,95242.00
2023-05-03T08:23:57.960Z,95238.00
2023-05-03T08:24:57.973Z,95242.00
2023-05-03T08:25:57.958Z,95238.00
2023-05-03T08:26:57.952Z,95240.00
2023-05-03T08:27:57.935Z,95236.00
2023-05-03T08:28:57.932Z,95232.00
2023-05-03T08:29:57.935Z,95234.00
2023-05-03T08:30:57.944Z,95228.00
2023-05-03T08:31:57.951Z,95228.00
2023-05-03T08:32:58.192Z,95228.00
2023-05-03T08:33:57.907Z,95230.00
2023-05-03T08:34:58.135Z,95228.00
2023-05-03T08:35:57.886Z,95228.00
2023-05-03T08:36:58.963Z,95228.00
2023-05-03T08:37:58.601Z,95224.00
2023-05-03T08:38:57.864Z,95226.00
2023-05-03T08:39:57.942Z,95228.00
2023-05-03T08:40:57.864Z,95224.00
2023-05-03T08:41:57.848Z,95224.00
2023-05-03T08:42:57.834Z,95226.00
2023-05-03T08:43:57.817Z,95226.00
2023-05-03T08:44:57.861Z,95226.00
2023-05-03T08:45:57.839Z,95222.00
2023-05-03T08:46:57.961Z,95224.00
2023-05-03T08:47:57.936Z,95226.00
2023-05-03T08:48:57.790Z,95224.00
2023-05-03T08:49:57.802Z,95224.00
2023-05-03T08:50:57.841Z,95226.00
2023-05-03T08:51:57.777Z,95226.00
2023-05-03T08:52:58.148Z,95222.00
2023-05-03T08:53:57.774Z,95222.00
2023-05-03T08:54:57.770Z,95224.00
2023-05-03T08:55:57.767Z,95224.00
2023-05-03T08:56:57.749Z,95222.00
2023-05-03T08:57:57.725Z,95220.00
2023-05-03T08:58:57.734Z,95220.00
2023-05-03T08:59:57.761Z,95222.00
2023-05-03T09:00:57.719Z,95222.00
2023-05-03T09:01:57.781Z,95220.00
2023-05-03T09:02:57.778Z,95218.00
2023-05-03T09:03:57.775Z,95216.00
2023-05-03T09:04:57.714Z,95216.00
2023-05-03T09:05:57.692Z,95214.00
2023-05-03T09:06:57.672Z,95212.00
2023-05-03T09:07:57.670Z,95212.00
2023-05-03T09:08:57.717Z,95210.00
2023-05-03T09:09:57.717Z,95208.00
2023-05-03T09:10:57.745Z,95208.00
2023-05-03T09:11:57.817Z,95208.00
2023-05-03T09:12:57.872Z,95208.00
2023-05-03T09:13:57.937Z,95208.00
2023-05-03T09:14:57.984Z,95208.00
2023-05-03T09:15:58.080Z,95208.00
2023-05-03T09:16:58.137Z,95204.00
2023-05-03T09:17:58.151Z,95204.00
2023-05-03T09:18:58.146Z,95198.00
2023-05-03T09:19:58.204Z,95200.00
2023-05-03T09:20:59.219Z,95200.00
2023-05-03T09:21:58.244Z,95197.00
2023-05-03T09:22:58.266Z,95197.00
2023-05-03T09:23:58.319Z,95198.00
2023-05-03T09:24:58.318Z,95197.00
2023-05-03T09:25:58.286Z,95191.00
2023-05-03T09:26:58.335Z,95195.00
2023-05-03T09:27:58.327Z,95189.00
2023-05-03T09:28:58.370Z,95193.00
2023-05-03T09:29:58.355Z,95191.00
2023-05-03T09:30:58.321Z,95187.00
2023-05-03T09:31:58.338Z,95189.00
2023-05-03T09:32:58.332Z,95187.00
2023-05-03T09:33:58.320Z,95187.00
2023-05-03T09:34:58.299Z,95183.00
2023-05-03T09:35:58.321Z,95177.00
2023-05-03T09:36:58.303Z,95179.00
2023-05-03T09:37:58.633Z,95179.00
2023-05-03T09:38:58.282Z,95179.00
2023-05-03T09:39:58.270Z,95179.00
2023-05-03T09:40:58.306Z,95173.00
2023-05-03T09:41:58.273Z,95171.00
2023-05-03T09:42:58.270Z,95171.00
2023-05-03T09:43:58.215Z,95169.00
2023-05-03T09:44:58.262Z,95165.00
2023-05-03T09:45:58.242Z,95165.00
2023-05-03T09:46:58.232Z,95171.00
2023-05-03T09:47:58.220Z,95167.00
2023-05-03T09:48:58.220Z,95169.00
2023-05-03T09:49:58.219Z,95159.00
2023-05-03T09:50:58.188Z,95159.00
2023-05-03T09:51:58.192Z,95159.00
2023-05-03T09:52:58.198Z,95155.00
2023-05-03T09:53:58.182Z,95157.00
2023-05-03T09:54:58.246Z,95155.00
2023-05-03T09:55:58.264Z,95155.00
2023-05-03T09:56:58.285Z,95157.00
2023-05-03T09:57:58.347Z,95151.00
2023-05-03T09:58:58.415Z,95153.00
2023-05-03T09:59:58.498Z,95150.00
2023-05-03T10:00:58.560Z,95148.00
2023-05-03T10:01:58.749Z,95151.00
2023-05-03T10:02:58.673Z,95148.00
2023-05-03T10:03:58.714Z,95148.00
2023-05-03T10:04:58.863Z,95151.00
2023-05-03T10:05:58.808Z,95144.00
2023-05-03T10:06:58.871Z,95150.00
2023-05-03T10:07:58.943Z,95150.00
2023-05-03T10:08:59.006Z,95144.00
2023-05-03T10:09:59.030Z,95130.00
2023-05-03T10:10:59.072Z,95130.00
2023-05-03T10:11:59.152Z,95130.00
2023-05-03T10:12:59.170Z,95126.00
2023-05-03T10:13:59.239Z,95126.00
2023-05-03T10:14:59.478Z,95126.00
2023-05-03T10:15:59.402Z,95124.00
2023-05-03T10:16:59.410Z,95122.00
2023-05-03T10:17:59.517Z,95120.00
2023-05-03T10:18:59.513Z,95122.00
2023-05-03T10:19:59.592Z,95118.00
2023-05-03T10:20:59.662Z,95118.00
2023-05-03T10:21:59.696Z,95116.00
2023-05-03T10:23:00.132Z,95118.00
2023-05-03T10:23:59.780Z,95116.00
2023-05-03T10:24:59.847Z,95110.00
2023-05-03T10:25:59.834Z,95110.00
2023-05-03T10:27:00.021Z,95110.00
2023-05-03T10:27:59.966Z,95108.00
2023-05-03T10:29:01.316Z,95108.00
2023-05-03T10:29:59.991Z,95106.00
2023-05-03T10:30:59.993Z,95104.00
2023-05-03T10:32:00.142Z,95108.00
2023-05-03T10:33:00.088Z,95106.00
2023-05-03T10:34:00.069Z,95104.00
2023-05-03T10:35:00.110Z,95102.00
2023-05-03T10:36:00.068Z,95104.00
2023-05-03T10:37:00.154Z,95102.00
2023-05-03T10:38:00.121Z,95098.00
2023-05-03T10:39:00.122Z,95102.00
2023-05-03T10:40:00.191Z,95095.00
2023-05-03T10:41:00.165Z,95098.00
2023-05-03T10:42:00.168Z,95097.00
2023-05-03T10:43:00.261Z,95095.00
2023-05-03T10:44:00.220Z,95093.00
2023-05-03T10:45:00.248Z,95095.00
2023-05-03T10:46:00.336Z,95095.00
2023-05-03T10:47:01.132Z,95093.00
2023-05-03T10:48:00.406Z,95089.00
2023-05-03T10:49:00.336Z,95087.00
2023-05-03T10:50:00.365Z,95087.00
2023-05-03T10:51:00.375Z,95085.00
2023-05-03T10:52:00.404Z,95083.00
2023-05-03T10:53:00.502Z,95083.00
2023-05-03T10:54:00.624Z,95085.00
2023-05-03T10:55:00.682Z,95081.00
2023-05-03T10:56:00.547Z,95081.00
2023-05-03T10:57:00.588Z,95083.00
2023-05-03T10:58:00.594Z,95077.00
2023-05-03T10:59:00.622Z,95079.00
2023-05-03T11:00:00.614Z,95081.00
2023-05-03T11:01:01.165Z,95075.00
2023-05-03T11:02:00.644Z,95073.00
2023-05-03T11:03:00.681Z,95075.00
2023-05-03T11:04:00.696Z,95073.00
2023-05-03T11:05:00.940Z,95075.00
2023-05-03T11:06:00.666Z,95069.00
2023-05-03T11:07:00.770Z,95071.00
2023-05-03T11:08:00.764Z,95069.00
2023-05-03T11:09:00.775Z,95067.00
2023-05-03T11:10:01.136Z,95067.00
2023-05-03T11:11:00.818Z,95065.00
2023-05-03T11:12:00.900Z,95063.00
2023-05-03T11:13:01.005Z,95063.00
2023-05-03T11:14:01.134Z,95061.00
2023-05-03T11:15:01.180Z,95063.00
2023-05-03T11:16:01.194Z,95059.00
2023-05-03T11:17:01.424Z,95059.00
2023-05-03T11:18:01.288Z,95061.00
2023-05-03T11:19:01.275Z,95061.00
2023-05-03T11:20:01.314Z,95063.00
2023-05-03T11:21:01.373Z,95059.00
2023-05-03T11:22:01.385Z,95061.00
2023-05-03T11:23:01.462Z,95059.00
2023-05-03T11:24:01.501Z,95063.00
2023-05-03T11:25:01.688Z,95061.00
2023-05-03T11:26:01.578Z,95059.00
2023-05-03T11:27:08.499Z,95059.00
2023-05-03T11:28:02.662Z,95057.00
2023-05-03T11:29:01.629Z,95057.00
2023-05-03T11:30:01.613Z,95057.00
2023-05-03T11:31:01.620Z,95059.00
2023-05-03T11:32:01.663Z,95059.00
2023-05-03T11:33:01.688Z,95059.00
2023-05-03T11:34:01.623Z,95057.00
2023-05-03T11:35:01.749Z,95059.00
2023-05-03T11:36:01.570Z,95057.00
2023-05-03T11:37:01.592Z,95057.00
2023-05-03T11:38:01.620Z,95057.00
2023-05-03T11:39:01.654Z,95059.00
2023-05-03T11:40:01.696Z,95057.00
2023-05-03T11:41:01.738Z,95053.00
2023-05-03T11:42:01.863Z,95053.00
2023-05-03T11:43:01.794Z,95055.00
2023-05-03T11:44:15.400Z,95051.00
2023-05-03T11:45:03.215Z,95055.00
2023-05-03T11:46:01.878Z,95055.00